Time;durP1;ratioP1;P1;durP2;ratioP2;P2;SDS_P1;SDS_P2;PMS_P1;PMS_P2;Temp;Humidity;BMP_temperature;BMP_pressure;BME280_temperature;BME280_humidity;BME280_pressure;Samples;Min_cycle;Max_cycle;Signal;HPM_P1;HPM_P2
2023/12/23 00:02:20;;;;;;;1.63;0.68;;;8.40;99.00;;;;;;5015673;28;20072;-66
2023/12/23 00:04:46;;;;;;;1.25;0.63;;;8.40;99.00;;;;;;5021220;28;20026;-67
2023/12/23 00:07:14;;;;;;;0.98;0.70;;;8.40;99.00;;;;;;5023349;28;20040;-67
2023/12/23 00:09:40;;;;;;;3.20;0.75;;;8.40;99.00;;;;;;5025831;28;20030;-67
2023/12/23 00:12:08;;;;;;;1.30;0.70;;;8.40;99.00;;;;;;5028219;28;20083;-67
2023/12/23 00:14:34;;;;;;;1.67;0.65;;;8.40;99.00;;;;;;5021929;28;20556;-67
2023/12/23 00:16:59;;;;;;;2.10;1.00;;;8.40;99.00;;;;;;5031324;28;20096;-66
2023/12/23 00:19:25;;;;;;;3.75;0.85;;;8.40;98.90;;;;;;5025504;28;20383;-66
2023/12/23 00:21:50;;;;;;;2.20;0.70;;;8.50;98.90;;;;;;5023221;28;20026;-67
2023/12/23 00:24:16;;;;;;;2.20;0.65;;;8.40;98.80;;;;;;5019419;28;20033;-66
2023/12/23 00:26:41;;;;;;;1.50;0.75;;;8.50;98.90;;;;;;5022820;28;20320;-65
2023/12/23 00:29:07;;;;;;;2.75;0.70;;;8.50;98.90;;;;;;5022186;28;20436;-65
2023/12/23 00:31:33;;;;;;;2.78;0.80;;;8.40;98.80;;;;;;5019279;28;20025;-67
2023/12/23 00:33:58;;;;;;;4.03;0.80;;;8.40;98.80;;;;;;5023691;28;20034;-66
2023/12/23 00:36:24;;;;;;;1.38;0.73;;;8.40;98.90;;;;;;5028673;28;20082;-65
2023/12/23 00:38:50;;;;;;;3.47;1.13;;;8.50;98.80;;;;;;5026776;28;20536;-65
2023/12/23 00:41:16;;;;;;;1.20;0.70;;;8.50;99.10;;;;;;5018573;28;20757;-65
2023/12/23 00:43:41;;;;;;;2.53;0.75;;;8.50;98.90;;;;;;5020892;28;20034;-64
2023/12/23 00:46:10;;;;;;;2.88;0.60;;;8.50;98.90;;;;;;5019327;28;20065;-66
2023/12/23 00:48:37;;;;;;;5.28;1.00;;;8.50;98.90;;;;;;5019348;28;20030;-65
2023/12/23 00:51:03;;;;;;;2.10;0.73;;;8.50;98.90;;;;;;5020129;28;20021;-66
2023/12/23 00:53:29;;;;;;;0.80;0.60;;;8.50;98.90;;;;;;5017250;28;20026;-66
2023/12/23 00:55:54;;;;;;;0.82;0.60;;;8.50;98.90;;;;;;5015714;28;20026;-65
2023/12/23 00:58:20;;;;;;;2.22;0.90;;;8.60;98.80;;;;;;5020060;28;20028;-66
2023/12/23 01:00:46;;;;;;;1.65;0.60;;;8.60;98.70;;;;;;5023181;28;20108;-65
2023/12/23 01:03:12;;;;;;;1.75;0.75;;;8.60;98.70;;;;;;5029691;28;20395;-66
2023/12/23 01:05:38;;;;;;;2.38;0.60;;;8.60;98.70;;;;;;5022209;28;20030;-66
2023/12/23 01:08:03;;;;;;;2.78;0.90;;;8.60;98.70;;;;;;5027517;28;20100;-65
2023/12/23 01:10:29;;;;;;;1.83;1.02;;;8.60;98.80;;;;;;5028602;28;20030;-65
2023/12/23 01:12:54;;;;;;;1.25;0.60;;;8.60;98.70;;;;;;5027749;28;20127;-66
2023/12/23 01:15:20;;;;;;;0.93;0.52;;;8.60;98.70;;;;;;5028630;28;20025;-66
2023/12/23 01:17:46;;;;;;;0.65;0.50;;;8.60;98.70;;;;;;5022354;28;20017;-65
2023/12/23 01:20:11;;;;;;;1.58;0.55;;;8.60;98.70;;;;;;5023794;28;20104;-65
2023/12/23 01:22:37;;;;;;;1.80;0.60;;;8.60;98.80;;;;;;5023089;28;20112;-65
2023/12/23 01:25:03;;;;;;;3.03;0.70;;;8.60;98.70;;;;;;5022515;28;20026;-65
2023/12/23 01:27:29;;;;;;;1.80;0.60;;;8.60;98.80;;;;;;5015656;28;20057;-65
2023/12/23 01:29:54;;;;;;;1.58;0.60;;;8.60;98.80;;;;;;5023237;28;20026;-64
2023/12/23 01:32:20;;;;;;;2.53;0.70;;;8.60;98.90;;;;;;5021523;28;20025;-64
2023/12/23 01:34:47;;;;;;;1.42;0.63;;;8.60;98.90;;;;;;5020724;28;20029;-66
2023/12/23 01:37:12;;;;;;;0.60;0.60;;;8.60;98.90;;;;;;5029305;28;20025;-63
2023/12/23 01:39:38;;;;;;;1.88;0.73;;;8.60;98.90;;;;;;5030765;28;20032;-65
2023/12/23 01:42:04;;;;;;;1.92;0.60;;;8.60;98.90;;;;;;5025244;28;20029;-65
2023/12/23 01:44:30;;;;;;;2.38;0.75;;;8.60;98.90;;;;;;5019018;28;20025;-65
2023/12/23 01:46:56;;;;;;;1.95;0.60;;;8.60;99.00;;;;;;5018927;28;20030;-65
2023/12/23 01:49:23;;;;;;;2.33;0.60;;;8.60;99.00;;;;;;5020665;28;20075;-66
2023/12/23 01:51:50;;;;;;;0.82;0.52;;;8.60;99.00;;;;;;5016445;28;20045;-64
2023/12/23 01:54:15;;;;;;;0.50;0.50;;;8.60;99.20;;;;;;5019493;28;20499;-64
2023/12/23 01:56:42;;;;;;;2.28;0.70;;;8.60;98.90;;;;;;5021067;28;20059;-64
2023/12/23 01:59:07;;;;;;;1.75;0.65;;;8.60;99.00;;;;;;5024569;28;20083;-63
2023/12/23 02:01:34;;;;;;;1.35;0.55;;;8.60;99.00;;;;;;5016033;28;20463;-64
2023/12/23 02:04:00;;;;;;;1.67;0.70;;;8.70;98.90;;;;;;5022272;28;20018;-63
2023/12/23 02:06:26;;;;;;;1.58;0.70;;;8.70;98.90;;;;;;5018497;28;20554;-65
2023/12/23 02:08:52;;;;;;;1.30;0.60;;;8.70;98.90;;;;;;5020403;28;20034;-65
2023/12/23 02:11:51;;;;;;;1.15;0.50;;;8.70;99.00;;;;;;5017911;28;20044;-63
2023/12/23 02:14:42;;;;;;;1.65;0.68;;;8.70;99.00;;;;;;5026941;28;20022;-65
2023/12/23 02:17:09;;;;;;;0.60;0.55;;;8.80;99.00;;;;;;5020723;28;20041;-64
2023/12/23 02:19:34;;;;;;;0.63;0.40;;;8.80;98.90;;;;;;5025996;28;20021;-64
2023/12/23 02:22:00;;;;;;;0.70;0.40;;;8.80;98.80;;;;;;5022440;28;20373;-64
2023/12/23 02:24:26;;;;;;;0.95;0.60;;;8.70;98.90;;;;;;5029591;28;20085;-63
2023/12/23 02:26:59;;;;;;;1.65;0.93;;;8.80;98.90;;;;;;5024293;28;20024;-65
2023/12/23 02:29:26;;;;;;;0.98;0.55;;;8.70;98.90;;;;;;5016375;28;20028;-66
2023/12/23 02:31:54;;;;;;;0.70;0.50;;;8.70;98.90;;;;;;5016427;28;20034;-65
2023/12/23 02:34:20;;;;;;;1.20;0.60;;;8.70;98.90;;;;;;5019290;28;20021;-64
2023/12/23 02:36:46;;;;;;;0.50;0.50;;;8.70;98.90;;;;;;5017624;28;20037;-63
2023/12/23 02:39:11;;;;;;;2.45;0.70;;;8.70;98.90;;;;;;5020872;28;20495;-63
2023/12/23 02:41:37;;;;;;;1.65;0.57;;;8.80;99.00;;;;;;5023266;28;20106;-65
2023/12/23 02:44:02;;;;;;;3.10;1.00;;;8.70;99.00;;;;;;5016791;28;20353;-63
2023/12/23 02:46:28;;;;;;;0.70;0.50;;;8.70;99.00;;;;;;5018896;28;20103;-65
2023/12/23 02:48:53;;;;;;;1.08;0.68;;;8.80;99.00;;;;;;5023833;28;20040;-64
2023/12/23 02:51:19;;;;;;;0.50;0.50;;;8.70;99.10;;;;;;5024923;28;20122;-65
2023/12/23 02:53:44;;;;;;;1.00;0.57;;;8.80;99.10;;;;;;5028216;28;20065;-65
2023/12/23 02:56:10;;;;;;;1.83;0.55;;;8.80;99.10;;;;;;5031606;28;20060;-63
2023/12/23 02:58:35;;;;;;;0.57;0.50;;;8.80;99.10;;;;;;5026400;28;20106;-66
2023/12/23 03:01:07;;;;;;;1.00;0.70;;;8.80;99.10;;;;;;5026522;28;20041;-65
2023/12/23 03:03:33;;;;;;;0.57;0.50;;;8.80;99.10;;;;;;5019603;28;20109;-63
2023/12/23 03:05:58;;;;;;;0.63;0.50;;;8.80;99.10;;;;;;5017170;28;20232;-64
2023/12/23 03:08:24;;;;;;;1.75;0.60;;;8.90;99.10;;;;;;5029555;28;20391;-64
2023/12/23 03:10:50;;;;;;;0.93;0.50;;;8.90;99.10;;;;;;5019044;28;20040;-65
2023/12/23 03:13:16;;;;;;;1.60;0.60;;;8.80;99.10;;;;;;5022552;28;20096;-64
2023/12/23 03:15:41;;;;;;;0.60;0.60;;;8.80;99.20;;;;;;5019686;28;21993;-65
2023/12/23 03:18:07;;;;;;;0.90;0.70;;;8.80;99.40;;;;;;5026212;28;20029;-64
2023/12/23 03:20:33;;;;;;;0.77;0.75;;;8.90;99.40;;;;;;5021739;28;20047;-65
2023/12/23 03:22:58;;;;;;;1.88;0.93;;;8.90;99.40;;;;;;5019617;28;20030;-63
2023/12/23 03:25:24;;;;;;;2.85;1.13;;;9.00;99.40;;;;;;5020420;28;20040;-65
2023/12/23 03:27:50;;;;;;;0.57;0.57;;;9.00;99.40;;;;;;5020469;28;20101;-64
2023/12/23 03:30:15;;;;;;;1.25;0.90;;;9.10;99.50;;;;;;5027048;28;20024;-66
2023/12/23 03:32:41;;;;;;;1.33;1.10;;;9.10;99.50;;;;;;5014213;28;20024;-64
2023/12/23 03:35:07;;;;;;;2.88;1.08;;;9.10;99.50;;;;;;5022006;28;20380;-65
2023/12/23 03:37:33;;;;;;;2.65;1.20;;;9.20;99.60;;;;;;5017114;28;20030;-66
2023/12/23 03:39:59;;;;;;;2.42;1.35;;;9.20;99.70;;;;;;5017154;28;20092;-64
2023/12/23 03:42:24;;;;;;;1.98;1.33;;;9.30;99.70;;;;;;5025670;28;20033;-64
2023/12/23 03:44:50;;;;;;;4.40;1.42;;;9.30;99.80;;;;;;5019349;28;20481;-66
2023/12/23 03:47:15;;;;;;;3.35;1.60;;;9.40;99.90;;;;;;5023395;28;20072;-65
2023/12/23 03:49:42;;;;;;;3.97;1.40;;;9.40;99.90;;;;;;5022038;28;20053;-64
2023/12/23 03:52:07;;;;;;;2.90;1.40;;;9.50;99.90;;;;;;5029290;28;20412;-66
2023/12/23 03:54:33;;;;;;;4.00;1.40;;;9.50;99.90;;;;;;5020172;28;20037;-65
2023/12/23 03:56:58;;;;;;;2.72;1.27;;;9.50;99.90;;;;;;5023802;28;20541;-66
2023/12/23 03:59:24;;;;;;;3.75;1.42;;;9.50;99.90;;;;;;5016851;28;20032;-67
2023/12/23 04:01:49;;;;;;;3.60;1.27;;;9.60;99.90;;;;;;5021743;28;20037;-66
2023/12/23 04:04:15;;;;;;;5.60;1.40;;;9.60;99.90;;;;;;5015957;28;20038;-63
2023/12/23 04:06:41;;;;;;;3.03;1.20;;;9.60;99.90;;;;;;5018838;28;20111;-66
2023/12/23 04:09:06;;;;;;;5.65;1.75;;;9.60;99.90;;;;;;5018870;28;20061;-66
2023/12/23 04:11:36;;;;;;;4.55;1.55;;;9.70;99.90;;;;;;5020707;28;20076;-66
2023/12/23 04:14:01;;;;;;;2.85;1.00;;;9.70;99.90;;;;;;5016522;28;20021;-66
2023/12/23 04:16:27;;;;;;;2.92;1.20;;;9.70;99.90;;;;;;5017985;28;20036;-65
2023/12/23 04:18:53;;;;;;;3.78;1.13;;;9.80;99.90;;;;;;5022692;28;20515;-65
2023/12/23 04:21:19;;;;;;;4.07;1.20;;;9.80;99.90;;;;;;5023338;28;20025;-66
2023/12/23 04:23:45;;;;;;;3.38;1.25;;;9.80;99.90;;;;;;5015083;28;20030;-66
2023/12/23 04:26:14;;;;;;;1.60;0.90;;;9.80;99.90;;;;;;5021379;28;20080;-66
2023/12/23 04:28:39;;;;;;;4.90;1.00;;;9.90;99.90;;;;;;5027020;28;20488;-65
2023/12/23 04:31:05;;;;;;;1.83;0.82;;;9.80;99.90;;;;;;5026007;28;20097;-65
2023/12/23 04:33:31;;;;;;;7.97;1.45;;;9.90;99.90;;;;;;5017463;28;20041;-65
2023/12/23 04:35:57;;;;;;;5.22;1.48;;;9.90;99.90;;;;;;5021431;28;20060;-67
2023/12/23 04:38:23;;;;;;;2.45;1.10;;;9.90;99.90;;;;;;5022326;28;20030;-66
2023/12/23 04:40:48;;;;;;;4.68;1.50;;;9.90;99.90;;;;;;5023467;28;20033;-65
2023/12/23 04:43:14;;;;;;;5.10;1.30;;;9.90;99.90;;;;;;5020678;28;20021;-63
2023/12/23 04:45:39;;;;;;;5.38;1.15;;;9.90;99.90;;;;;;5023817;28;20392;-67
2023/12/23 04:48:06;;;;;;;4.10;1.00;;;9.90;99.90;;;;;;5028346;28;20040;-65
2023/12/23 04:50:31;;;;;;;4.10;1.27;;;10.00;99.90;;;;;;5028299;28;20655;-65
2023/12/23 04:52:57;;;;;;;3.83;1.45;;;9.90;99.90;;;;;;5023640;28;20029;-66
2023/12/23 04:55:22;;;;;;;6.32;1.30;;;9.90;99.90;;;;;;5019793;28;20028;-65
2023/12/23 04:57:48;;;;;;;4.90;1.42;;;9.90;99.90;;;;;;5022227;28;20499;-65
2023/12/23 05:00:14;;;;;;;2.70;1.20;;;9.90;99.90;;;;;;5023314;28;20088;-66
2023/12/23 05:02:40;;;;;;;4.07;1.83;;;9.90;99.90;;;;;;5020988;28;20034;-65
2023/12/23 05:05:06;;;;;;;3.00;1.13;;;10.00;99.90;;;;;;5024786;28;20028;-66
2023/12/23 05:07:32;;;;;;;3.53;1.30;;;10.00;99.90;;;;;;5025094;28;20033;-65
2023/12/23 05:09:58;;;;;;;4.47;1.45;;;10.00;99.90;;;;;;5021817;28;20028;-66
2023/12/23 05:12:23;;;;;;;3.90;1.30;;;10.00;99.90;;;;;;5022048;28;20030;-66
2023/12/23 05:14:50;;;;;;;5.63;1.55;;;10.00;99.90;;;;;;5021930;28;20018;-65
2023/12/23 05:17:15;;;;;;;5.45;1.30;;;10.10;99.90;;;;;;5022052;28;20022;-64
2023/12/23 05:19:41;;;;;;;3.72;1.65;;;10.10;99.90;;;;;;5017797;28;20469;-65
2023/12/23 05:22:07;;;;;;;3.78;1.10;;;10.10;99.90;;;;;;5014661;28;20022;-63
2023/12/23 05:24:33;;;;;;;4.63;1.23;;;10.10;99.90;;;;;;5019446;28;20022;-63
2023/12/23 05:26:58;;;;;;;5.20;1.40;;;10.10;99.90;;;;;;5015941;28;20025;-66
2023/12/23 05:29:24;;;;;;;6.93;1.45;;;10.10;99.90;;;;;;5026433;28;20036;-65
2023/12/23 05:31:50;;;;;;;3.28;1.13;;;10.10;99.90;;;;;;5021489;28;20030;-66
2023/12/23 05:34:15;;;;;;;4.18;1.10;;;10.10;99.90;;;;;;5013020;28;20025;-65
2023/12/23 05:36:41;;;;;;;2.50;1.00;;;10.20;99.90;;;;;;5022435;28;20022;-64
2023/12/23 05:39:07;;;;;;;3.97;0.85;;;10.20;99.90;;;;;;5027903;28;20474;-64
2023/12/23 05:41:32;;;;;;;3.33;1.08;;;10.20;99.90;;;;;;5016466;28;20021;-65
2023/12/23 05:43:58;;;;;;;2.38;0.98;;;10.20;99.90;;;;;;5020548;28;20511;-65
2023/12/23 05:46:24;;;;;;;5.65;1.35;;;10.20;99.90;;;;;;5022772;28;20083;-64
2023/12/23 05:48:50;;;;;;;4.82;1.50;;;10.20;99.90;;;;;;5026777;28;20387;-65
2023/12/23 05:51:15;;;;;;;3.03;1.00;;;10.20;99.90;;;;;;5015193;28;20030;-63
2023/12/23 05:53:41;;;;;;;4.50;1.02;;;10.10;99.90;;;;;;5020627;28;20045;-66
2023/12/23 05:56:07;;;;;;;3.67;1.38;;;10.10;99.90;;;;;;5022064;28;20029;-64
2023/12/23 05:58:33;;;;;;;4.32;1.25;;;10.10;99.90;;;;;;5028536;28;20502;-65
2023/12/23 06:00:59;;;;;;;9.23;1.92;;;10.10;99.90;;;;;;5023987;28;20021;-65
2023/12/23 06:03:25;;;;;;;4.30;1.23;;;10.10;99.90;;;;;;5028541;28;20013;-64
2023/12/23 06:05:50;;;;;;;5.28;1.40;;;10.00;99.90;;;;;;5024434;28;20030;-66
2023/12/23 06:08:16;;;;;;;4.00;1.63;;;10.00;99.90;;;;;;5031822;28;20025;-66
2023/12/23 06:10:41;;;;;;;3.05;1.20;;;10.00;99.90;;;;;;5026513;28;20037;-66
2023/12/23 06:13:07;;;;;;;5.40;1.40;;;10.00;99.90;;;;;;5027052;28;20561;-66
2023/12/23 06:15:32;;;;;;;3.67;1.30;;;10.00;99.90;;;;;;5014531;28;20640;-64
2023/12/23 06:17:58;;;;;;;1.80;1.17;;;10.00;99.90;;;;;;5023421;28;20026;-65
2023/12/23 06:20:24;;;;;;;3.00;0.80;;;10.00;99.90;;;;;;5027294;28;20035;-64
2023/12/23 06:22:49;;;;;;;1.73;1.08;;;10.00;99.90;;;;;;5025183;28;20025;-66
2023/12/23 06:25:15;;;;;;;2.47;1.15;;;10.00;99.90;;;;;;5034410;28;20047;-66
2023/12/23 06:27:40;;;;;;;2.17;0.80;;;10.10;99.90;;;;;;5022601;28;20059;-65
2023/12/23 06:30:07;;;;;;;3.88;1.27;;;10.10;99.90;;;;;;5029093;28;20029;-65
2023/12/23 06:32:32;;;;;;;3.53;1.13;;;10.00;99.90;;;;;;5027500;28;20519;-66
2023/12/23 06:34:58;;;;;;;2.33;1.00;;;10.10;99.90;;;;;;5028352;28;21360;-65
2023/12/23 06:37:23;;;;;;;5.32;1.50;;;10.10;99.90;;;;;;5026955;28;20032;-66
2023/12/23 06:39:49;;;;;;;5.93;1.40;;;10.10;99.90;;;;;;5027844;28;20060;-66
2023/12/23 06:42:14;;;;;;;5.90;1.30;;;10.00;99.90;;;;;;5025736;28;20067;-64
2023/12/23 06:44:40;;;;;;;5.32;1.40;;;10.10;99.90;;;;;;5022907;28;20040;-65
2023/12/23 06:47:07;;;;;;;4.38;1.10;;;10.10;99.90;;;;;;5022456;28;20596;-63
2023/12/23 06:49:33;;;;;;;2.42;1.10;;;10.10;99.90;;;;;;5024438;28;20032;-64
2023/12/23 06:51:58;;;;;;;3.72;1.05;;;10.10;99.90;;;;;;5024916;28;20026;-65
2023/12/23 06:54:24;;;;;;;3.60;1.40;;;10.10;99.90;;;;;;5027338;28;20044;-66
2023/12/23 06:56:49;;;;;;;4.57;1.10;;;10.10;99.90;;;;;;5019887;28;20029;-66
2023/12/23 06:59:15;;;;;;;2.83;1.30;;;10.10;99.90;;;;;;5022795;28;20021;-66
2023/12/23 07:01:40;;;;;;;3.03;1.00;;;10.10;99.90;;;;;;5025162;28;20029;-66
2023/12/23 07:04:07;;;;;;;3.20;1.05;;;10.10;99.90;;;;;;5022775;28;20022;-67
2023/12/23 07:06:33;;;;;;;3.92;1.55;;;10.10;99.90;;;;;;5024806;28;20049;-66
2023/12/23 07:08:59;;;;;;;3.28;1.10;;;10.10;99.90;;;;;;5031115;28;20115;-65
2023/12/23 07:11:25;;;;;;;3.63;1.15;;;10.10;99.90;;;;;;5027741;28;20034;-64
2023/12/23 07:13:53;;;;;;;2.53;0.95;;;10.10;99.90;;;;;;5025525;28;20087;-66
2023/12/23 07:16:19;;;;;;;3.97;1.17;;;10.20;99.90;;;;;;5024381;28;20037;-65
2023/12/23 07:18:45;;;;;;;3.90;1.20;;;10.20;99.90;;;;;;5024679;28;20048;-67
2023/12/23 07:21:11;;;;;;;2.95;1.13;;;10.20;99.90;;;;;;5022207;28;20025;-66
2023/12/23 07:23:36;;;;;;;2.92;1.00;;;10.20;99.90;;;;;;5015880;28;20142;-64
2023/12/23 07:26:03;;;;;;;5.07;1.63;;;10.30;99.90;;;;;;5019214;28;20114;-66
2023/12/23 07:28:29;;;;;;;5.47;1.27;;;10.20;99.90;;;;;;5014993;28;20083;-67
2023/12/23 07:30:55;;;;;;;3.92;1.35;;;10.20;99.90;;;;;;5024838;28;20036;-66
2023/12/23 07:33:21;;;;;;;5.03;1.30;;;10.30;99.90;;;;;;5017176;28;20033;-67
2023/12/23 07:35:47;;;;;;;3.28;1.35;;;10.30;99.90;;;;;;5016727;28;20108;-66
2023/12/23 07:38:12;;;;;;;4.70;1.83;;;10.30;99.90;;;;;;5020108;28;20535;-67
2023/12/23 07:40:39;;;;;;;3.38;1.23;;;10.30;99.90;;;;;;5021068;28;20022;-66
2023/12/23 07:43:04;;;;;;;3.97;1.20;;;10.40;99.90;;;;;;5014934;28;20018;-67
2023/12/23 07:45:30;;;;;;;4.28;1.40;;;10.40;99.90;;;;;;5028037;28;20022;-67
2023/12/23 07:47:56;;;;;;;3.08;1.10;;;10.40;99.90;;;;;;5019154;28;20076;-67
2023/12/23 07:50:22;;;;;;;4.85;1.25;;;10.40;99.90;;;;;;5011051;28;20018;-65
2023/12/23 07:52:48;;;;;;;2.42;1.10;;;10.40;99.90;;;;;;5016957;28;20030;-66
2023/12/23 07:55:14;;;;;;;3.65;1.20;;;10.50;99.90;;;;;;5016196;28;20034;-65
2023/12/23 07:57:42;;;;;;;4.28;1.20;;;10.50;99.90;;;;;;5024419;28;20171;-67
2023/12/23 08:00:08;;;;;;;5.20;1.40;;;10.50;99.90;;;;;;5024166;28;20024;-64
2023/12/23 08:02:34;;;;;;;3.83;1.30;;;10.50;99.90;;;;;;5019564;28;20506;-65
2023/12/23 08:05:00;;;;;;;3.85;1.25;;;10.50;99.90;;;;;;5031224;28;20117;-67
2023/12/23 08:07:25;;;;;;;3.85;1.20;;;10.60;99.90;;;;;;5030076;28;20537;-67
2023/12/23 08:09:51;;;;;;;4.68;1.27;;;10.60;99.90;;;;;;5029665;28;20693;-67
2023/12/23 08:12:17;;;;;;;5.05;1.40;;;10.60;99.90;;;;;;5024942;28;20537;-66
2023/12/23 08:14:43;;;;;;;7.22;1.70;;;10.60;99.90;;;;;;5023415;28;20029;-66
2023/12/23 08:17:08;;;;;;;2.97;1.23;;;10.60;99.90;;;;;;5024319;28;20040;-66
2023/12/23 08:19:34;;;;;;;4.72;1.20;;;10.60;99.90;;;;;;5024299;28;20025;-66
2023/12/23 08:21:59;;;;;;;5.45;1.33;;;10.70;99.90;;;;;;5026839;28;20097;-66
2023/12/23 08:24:25;;;;;;;6.70;1.70;;;10.70;99.70;;;;;;5027802;28;20437;-65
2023/12/23 08:26:50;;;;;;;3.78;1.20;;;10.70;99.60;;;;;;5029872;28;20038;-67
2023/12/23 08:29:16;;;;;;;5.78;1.45;;;10.70;99.50;;;;;;5031240;28;20022;-67
2023/12/23 08:31:45;;;;;;;5.60;1.10;;;10.70;99.50;;;;;;5030428;28;20040;-67
2023/12/23 08:34:11;;;;;;;5.35;1.00;;;10.80;99.40;;;;;;5030341;28;20036;-67
2023/12/23 08:36:36;;;;;;;4.30;1.40;;;10.80;99.40;;;;;;5029276;28;20411;-64
2023/12/23 08:39:02;;;;;;;9.98;1.30;;;10.80;99.30;;;;;;5029394;28;20103;-67
2023/12/23 08:41:28;;;;;;;5.22;1.20;;;10.80;99.10;;;;;;5030055;28;20025;-66
2023/12/23 08:43:53;;;;;;;4.28;1.20;;;10.80;99.10;;;;;;5030932;28;20104;-67
2023/12/23 08:46:19;;;;;;;3.97;1.10;;;10.80;98.90;;;;;;5032681;28;20025;-66
2023/12/23 08:48:44;;;;;;;2.35;0.82;;;10.80;98.90;;;;;;5029547;28;20034;-67
2023/12/23 08:51:10;;;;;;;2.50;1.20;;;10.90;98.90;;;;;;5029048;28;20052;-66
2023/12/23 08:53:36;;;;;;;2.88;1.10;;;10.90;98.80;;;;;;5029747;28;20037;-67
2023/12/23 08:56:02;;;;;;;4.40;0.98;;;10.90;98.70;;;;;;5023827;28;20029;-68
2023/12/23 08:58:30;;;;;;;4.43;1.45;;;10.90;98.60;;;;;;5030289;28;20065;-66
2023/12/23 09:00:57;;;;;;;2.70;1.23;;;10.90;98.40;;;;;;5021536;28;20087;-67
2023/12/23 09:03:22;;;;;;;4.07;1.20;;;10.90;98.40;;;;;;5025822;28;20048;-64
2023/12/23 09:05:48;;;;;;;4.85;1.30;;;10.90;98.30;;;;;;5024992;28;20029;-67
2023/12/23 09:08:14;;;;;;;3.47;1.52;;;10.90;98.10;;;;;;5027589;28;20053;-67
2023/12/23 09:10:39;;;;;;;5.55;1.50;;;10.90;98.10;;;;;;5024442;28;20068;-64
2023/12/23 09:13:05;;;;;;;4.40;1.20;;;11.00;98.00;;;;;;5028185;28;20104;-66
2023/12/23 09:15:31;;;;;;;6.18;1.35;;;10.90;98.00;;;;;;5028558;28;20026;-64
2023/12/23 09:17:57;;;;;;;6.63;1.10;;;11.00;98.20;;;;;;5026008;28;20411;-67
2023/12/23 09:20:23;;;;;;;4.70;1.63;;;11.00;97.80;;;;;;5024632;28;20022;-65
2023/12/23 09:22:48;;;;;;;6.00;1.88;;;11.00;97.80;;;;;;5025861;28;20504;-67
2023/12/23 09:25:14;;;;;;;4.50;1.20;;;11.00;97.80;;;;;;5028183;28;20109;-66
2023/12/23 09:27:39;;;;;;;4.57;1.23;;;10.90;97.50;;;;;;5024325;28;20036;-64
2023/12/23 09:30:06;;;;;;;3.50;1.10;;;11.00;97.50;;;;;;5027061;28;20033;-67
2023/12/23 09:32:31;;;;;;;3.00;0.98;;;11.00;97.30;;;;;;5026883;28;20044;-65
2023/12/23 09:34:57;;;;;;;3.80;1.00;;;11.00;97.30;;;;;;5025647;28;20017;-66
2023/12/23 09:37:23;;;;;;;2.97;0.82;;;11.00;97.30;;;;;;5025598;28;20075;-63
2023/12/23 09:39:48;;;;;;;3.88;1.10;;;11.00;97.30;;;;;;5027549;28;20053;-65
2023/12/23 09:42:14;;;;;;;2.85;0.90;;;11.00;97.30;;;;;;5024644;28;20101;-65
2023/12/23 09:44:40;;;;;;;2.60;1.42;;;11.10;97.20;;;;;;5023856;28;20676;-65
2023/12/23 09:47:07;;;;;;;4.07;1.30;;;11.10;97.30;;;;;;5023253;28;20029;-65
2023/12/23 09:49:32;;;;;;;3.40;0.90;;;11.00;97.20;;;;;;5025048;28;20022;-65
2023/12/23 09:51:59;;;;;;;1.85;1.10;;;11.10;97.20;;;;;;5025317;28;20132;-66
2023/12/23 09:54:27;;;;;;;1.77;0.73;;;11.10;97.20;;;;;;5027239;28;20048;-65
2023/12/23 09:56:54;;;;;;;4.10;1.20;;;11.10;97.10;;;;;;5026926;28;20103;-66
2023/12/23 09:59:19;;;;;;;2.83;1.50;;;11.10;97.10;;;;;;5024550;28;20063;-63
2023/12/23 10:01:45;;;;;;;2.08;0.95;;;11.10;97.10;;;;;;5026638;28;20087;-65
2023/12/23 10:04:11;;;;;;;3.13;1.13;;;11.10;97.10;;;;;;5023848;28;21452;-66
2023/12/23 10:06:37;;;;;;;3.58;0.95;;;11.10;97.10;;;;;;5022155;28;20112;-66
2023/12/23 10:09:03;;;;;;;2.72;0.90;;;11.10;97.10;;;;;;5022638;28;20373;-65
2023/12/23 10:11:29;;;;;;;3.30;1.02;;;11.00;97.40;;;;;;5020214;28;20498;-64
2023/12/23 10:13:56;;;;;;;5.53;1.10;;;11.10;97.10;;;;;;5022971;28;20642;-66
2023/12/23 10:16:21;;;;;;;2.78;0.80;;;11.10;97.10;;;;;;5024573;28;20029;-65
2023/12/23 10:18:47;;;;;;;3.33;1.00;;;11.10;97.10;;;;;;5026051;28;20041;-66
2023/12/23 10:21:13;;;;;;;2.20;0.90;;;11.10;97.00;;;;;;5021761;28;20017;-63
2023/12/23 10:23:39;;;;;;;4.82;1.30;;;11.10;97.00;;;;;;5020527;28;20112;-65
2023/12/23 10:26:04;;;;;;;4.05;1.17;;;11.10;97.00;;;;;;5020262;28;20030;-67
2023/12/23 10:28:30;;;;;;;2.90;1.00;;;11.10;97.00;;;;;;5024659;28;20018;-65
2023/12/23 10:31:01;;;;;;;3.92;1.15;;;11.10;97.00;;;;;;5020003;28;20088;-66
2023/12/23 10:33:30;;;;;;;3.13;1.00;;;11.10;97.00;;;;;;5023827;28;20071;-64
2023/12/23 10:35:58;;;;;;;5.65;1.05;;;11.10;97.00;;;;;;5020865;28;20037;-66
2023/12/23 10:38:26;;;;;;;2.30;1.00;;;11.10;96.90;;;;;;5025491;28;20183;-65
2023/12/23 10:41:00;;;;;;;2.95;1.02;;;11.10;96.90;;;;;;5023764;28;20052;-64
2023/12/23 10:43:27;;;;;;;1.75;0.80;;;11.10;97.00;;;;;;5023644;28;20034;-65
2023/12/23 10:45:54;;;;;;;3.22;1.00;;;11.10;96.90;;;;;;5024038;28;20464;-66
2023/12/23 10:48:21;;;;;;;3.90;1.00;;;11.10;96.90;;;;;;5021083;28;20116;-65
2023/12/23 10:50:47;;;;;;;3.00;1.10;;;11.10;96.90;;;;;;5023048;28;20060;-63
2023/12/23 10:53:17;;;;;;;3.78;0.90;;;11.10;96.80;;;;;;5022075;28;20061;-64
2023/12/23 10:55:45;;;;;;;2.47;0.80;;;11.10;96.80;;;;;;5023687;28;20026;-65
2023/12/23 10:58:12;;;;;;;4.60;0.90;;;11.20;96.90;;;;;;5023301;28;20026;-66
2023/12/23 11:00:39;;;;;;;1.60;0.85;;;11.20;96.80;;;;;;5021612;28;20146;-64
2023/12/23 11:03:07;;;;;;;4.70;1.30;;;11.10;96.70;;;;;;5020675;28;20029;-65
2023/12/23 11:05:34;;;;;;;3.33;1.00;;;11.20;96.90;;;;;;5019888;28;20040;-64
2023/12/23 11:08:02;;;;;;;2.85;0.98;;;11.20;96.60;;;;;;5019449;28;20418;-67
2023/12/23 11:10:30;;;;;;;3.55;1.23;;;11.20;96.50;;;;;;5020785;28;20041;-65
2023/12/23 11:12:57;;;;;;;2.28;0.80;;;11.20;96.50;;;;;;5024193;28;20045;-66
2023/12/23 11:15:23;;;;;;;3.65;0.93;;;11.20;96.40;;;;;;5021924;28;20093;-65
2023/12/23 11:17:49;;;;;;;3.10;1.08;;;11.20;96.30;;;;;;5022605;28;20044;-67
2023/12/23 11:20:39;;;;;;;3.72;0.95;;;11.30;96.30;;;;;;5024261;28;20029;-67
2023/12/23 11:23:30;;;;;;;2.58;0.98;;;11.30;96.30;;;;;;5012127;28;20115;-67
2023/12/23 11:25:56;;;;;;;4.32;1.08;;;11.30;96.10;;;;;;5016999;28;20255;-66
2023/12/23 11:28:25;;;;;;;3.38;0.80;;;11.30;95.80;;;;;;5025495;28;21530;-64
2023/12/23 11:30:58;;;;;;;3.08;1.35;;;11.30;95.70;;;;;;5018493;28;20512;-66
2023/12/23 11:33:30;;;;;;;4.20;0.90;;;11.40;95.70;;;;;;5019143;28;20041;-65
2023/12/23 11:36:00;;;;;;;3.85;1.15;;;11.40;95.70;;;;;;5023315;28;20029;-65
2023/12/23 11:38:28;;;;;;;2.95;0.73;;;11.40;95.50;;;;;;5022938;28;20108;-65
2023/12/23 11:40:54;;;;;;;3.30;0.77;;;11.40;95.50;;;;;;5027831;28;20789;-64
2023/12/23 11:43:20;;;;;;;2.67;0.68;;;11.50;95.40;;;;;;5022096;28;20037;-65
2023/12/23 11:45:48;;;;;;;4.05;0.85;;;11.40;95.40;;;;;;5024820;28;20034;-67
2023/12/23 11:48:14;;;;;;;2.75;0.90;;;11.50;95.20;;;;;;5023908;28;20399;-66
2023/12/23 11:50:40;;;;;;;4.47;1.20;;;11.50;95.20;;;;;;5022073;28;20079;-66
2023/12/23 11:53:06;;;;;;;5.25;1.10;;;11.50;95.00;;;;;;5024899;28;21068;-65
2023/12/23 11:55:32;;;;;;;3.72;0.80;;;11.50;94.90;;;;;;5022779;28;20021;-67
2023/12/23 11:57:58;;;;;;;3.40;1.05;;;11.60;94.80;;;;;;5021324;28;20064;-64
2023/12/23 12:00:23;;;;;;;3.22;0.98;;;11.60;94.70;;;;;;5025201;28;20022;-66
2023/12/23 12:02:49;;;;;;;4.68;0.93;;;11.60;94.50;;;;;;5024756;28;20494;-65
2023/12/23 12:05:14;;;;;;;4.80;1.08;;;11.60;94.40;;;;;;5024155;28;20037;-65
2023/12/23 12:07:40;;;;;;;3.85;0.80;;;11.70;94.30;;;;;;5025072;28;20112;-66
2023/12/23 12:10:06;;;;;;;3.90;0.93;;;11.60;94.10;;;;;;5021184;28;20045;-65
2023/12/23 12:12:32;;;;;;;2.97;0.70;;;11.70;94.10;;;;;;5026741;28;20030;-66
2023/12/23 12:14:58;;;;;;;2.15;0.70;;;11.70;93.90;;;;;;5025207;28;20029;-66
2023/12/23 12:17:26;;;;;;;1.75;0.50;;;11.70;93.90;;;;;;5027048;28;20096;-65
2023/12/23 12:19:53;;;;;;;2.65;1.45;;;11.70;93.90;;;;;;5027196;28;20072;-63
2023/12/23 12:22:20;;;;;;;1.02;0.60;;;11.70;93.90;;;;;;5024634;28;20025;-63
2023/12/23 12:24:46;;;;;;;1.35;0.80;;;11.70;93.90;;;;;;5026572;28;20069;-66
2023/12/23 12:27:12;;;;;;;4.95;1.00;;;11.70;93.80;;;;;;5026517;28;20057;-65
2023/12/23 12:29:37;;;;;;;3.67;1.00;;;11.70;93.50;;;;;;5023969;28;20471;-66
2023/12/23 12:32:03;;;;;;;2.65;0.80;;;11.70;93.50;;;;;;5024581;28;20055;-65
2023/12/23 12:34:29;;;;;;;2.15;0.80;;;11.70;93.40;;;;;;5024104;28;20523;-64
2023/12/23 12:36:56;;;;;;;3.53;0.85;;;11.70;93.30;;;;;;5025439;28;20044;-66
2023/12/23 12:39:22;;;;;;;1.63;1.00;;;11.70;93.30;;;;;;5027132;28;20032;-66
2023/12/23 12:41:48;;;;;;;1.60;0.60;;;11.80;93.30;;;;;;5023772;28;20025;-65
2023/12/23 12:44:14;;;;;;;2.60;0.73;;;11.80;93.30;;;;;;5024688;28;20104;-67
2023/12/23 12:46:40;;;;;;;1.00;0.60;;;11.80;93.30;;;;;;5024717;28;20116;-66